»·PEaware :: N206SF KSNA-KBUR

N206SF :: KSNA-KBUR

FLIGHT INFORMATION

Flight Status: Arrived
Operator: Privately registered:
United States
More flights under this callsign
Pilot: Brad F (15664)
Aircraft: CESSNA 172 SKYHAWK
(C172)
More flights by this aircraft type
Origin: KSNA John Wayne-Orange Co
United States
Destination: KBUR Bob Hope-Burbank
United States
More flights between these airports :: More routes between these airports
Route:
File this flight plan on PilotEdge
Remarks: Will remain east of LAX Bravo
Altitude:
(Current/Filed)
6,500ft
Speed:
(Current/Filed)
105kts
Departed: 08-Aug-17 09:17 PM
Arrived: 08-Aug-17 10:02 PM
Distance/Time
Traveled:
40nm/0:45
Distance/Time
To Go:
Arrived

Flight Plot

Page will automatically refresh every two minutes.


Map Options




Map Legend


Flown Route
Filed Route
Departure Airport
Arrival Airport
Navaid (VOR, NDB)
Fix

Horizontal Profiles

Position Reports

Time Latitude Longitude Heading Altitude Ground
Speed
08-Aug-17 21:05 33.671599 -117.873531 29 60ft 0kts
08-Aug-17 21:06 33.671599 -117.873531 29 60ft 0kts
08-Aug-17 21:07 33.671599 -117.873531 29 60ft 0kts
08-Aug-17 21:08 33.671599 -117.873531 29 60ft 0kts
08-Aug-17 21:09 33.671599 -117.873531 29 60ft 0kts
08-Aug-17 21:10 33.671599 -117.873531 29 60ft 0kts
08-Aug-17 21:11 33.671599 -117.873531 29 60ft 0kts
08-Aug-17 21:12 33.671599 -117.873531 29 60ft 0kts
08-Aug-17 21:13 33.671599 -117.873531 29 60ft 0kts
08-Aug-17 21:14 33.671599 -117.873531 29 60ft 0kts
08-Aug-17 21:15 33.671638 -117.873501 34 60ft 3kts
08-Aug-17 21:16 33.675858 -117.870204 28 60ft 29kts
08-Aug-17 21:17 33.680459 -117.867490 25 60ft 19kts
08-Aug-17 21:18 33.681196 -117.866495 102 60ft 0kts
08-Aug-17 21:19 33.680949 -117.865850 127 60ft 8kts
08-Aug-17 21:20 33.667574 -117.874140 211 480ft 78kts
08-Aug-17 21:21 33.671143 -117.888918 347 1305ft 87kts
08-Aug-17 21:22 33.694778 -117.890278 356 2118ft 87kts
08-Aug-17 21:23 33.719079 -117.887655 8 2868ft 90kts
08-Aug-17 21:24 33.743647 -117.883101 6 3618ft 87kts
08-Aug-17 21:25 33.767744 -117.880266 352 4307ft 88kts
08-Aug-17 21:26 33.791907 -117.882386 349 4973ft 88kts
08-Aug-17 21:27 33.817436 -117.882027 1 5519ft 95kts
08-Aug-17 21:28 33.842812 -117.881909 358 6136ft 90kts
08-Aug-17 21:29 33.868325 -117.881704 358 6535ft 105kts
08-Aug-17 21:30 33.899864 -117.880553 4 6522ft 120kts
08-Aug-17 21:31 33.932392 -117.877396 5 6515ft 115kts
08-Aug-17 21:32 33.964516 -117.876089 0 6459ft 116kts
08-Aug-17 21:33 33.997025 -117.875710 359 6404ft 117kts
08-Aug-17 21:34 34.029721 -117.874663 348 6351ft 121kts
08-Aug-17 21:35 34.053180 -117.899078 290 6390ft 114kts
08-Aug-17 21:36 34.064161 -117.935420 289 6434ft 117kts
08-Aug-17 21:37 34.075320 -117.972637 283 6575ft 118kts
08-Aug-17 21:38 34.085171 -118.010755 282 6571ft 124kts
08-Aug-17 21:39 34.093948 -118.050676 284 6250ft 123kts
08-Aug-17 21:40 34.105514 -118.086127 290 5603ft 118kts
08-Aug-17 21:41 34.119948 -118.120570 293 5073ft 110kts
08-Aug-17 21:42 34.132841 -118.152635 288 4754ft 106kts
08-Aug-17 21:43 34.143883 -118.186971 290 4482ft 112kts
08-Aug-17 21:44 34.157752 -118.222934 293 3797ft 118kts
08-Aug-17 21:45 34.171428 -118.258375 291 2877ft 115kts
08-Aug-17 21:46 34.181960 -118.292400 282 2127ft 102kts
08-Aug-17 21:47 34.187827 -118.326583 270 1676ft 100kts
08-Aug-17 21:48 34.189553 -118.358026 266 1347ft 91kts
08-Aug-17 21:49 34.187974 -118.384039 265 1277ft 71kts
08-Aug-17 21:50 34.197401 -118.397875 64 1301ft 76kts
08-Aug-17 21:51 34.197980 -118.374598 96 921ft 60kts
08-Aug-17 21:52 34.197817 -118.356096 94 847ft 73kts
08-Aug-17 21:53 34.196972 -118.329762 94 1368ft 78kts
08-Aug-17 21:54 34.181645 -118.325511 233 1869ft 81kts
08-Aug-17 21:55 34.180661 -118.354359 271 1549ft 79kts
08-Aug-17 21:56 34.182039 -118.379915 269 1249ft 73kts
08-Aug-17 21:57 34.193738 -118.390106 57 1145ft 72kts
08-Aug-17 21:58 34.197914 -118.368584 99 814ft 59kts
08-Aug-17 21:59 34.197620 -118.344925 96 1170ft 83kts
08-Aug-17 22:00 34.186011 -118.328391 188 1764ft 94kts
08-Aug-17 22:01 34.182059 -118.355433 276 1678ft 88kts
08-Aug-17 22:02 34.185858 -118.382144 273 1423ft 79kts
08-Aug-17 22:03 34.197739 -118.397801 43 1224ft 75kts
08-Aug-17 22:04 34.197958 -118.374526 96 912ft 66kts
08-Aug-17 22:05 34.197789 -118.358425 72 781ft 24kts
08-Aug-17 22:06 34.198873 -118.357978 357 781ft 10kts

Navigation Log

Ident Type
1. KSNA Airport
2. KBUR Airport